Time;durP1;ratioP1;P1;durP2;ratioP2;P2;SDS_P1;SDS_P2;PMS_P1;PMS_P2;Temp;Humidity;BMP_temperature;BMP_pressure;BME280_temperature;BME280_humidity;BME280_pressure;Samples;Min_cycle;Max_cycle;Signal;HPM_P1;HPM_P2
2024/02/20 00:02:42;;;;;;;47.22;32.42;;;13.30;74.50;;;;;;5040390;28;20048;-80
2024/02/20 00:05:27;;;;;;;45.15;32.63;;;13.20;74.30;;;;;;5035190;28;20067;-80
2024/02/20 00:08:12;;;;;;;42.47;30.98;;;13.20;74.30;;;;;;5029999;28;20044;-80
2024/02/20 00:10:57;;;;;;;36.72;29.05;;;13.20;74.30;;;;;;5039301;28;20043;-80
2024/02/20 00:13:41;;;;;;;39.17;29.20;;;13.20;74.30;;;;;;5038203;28;20059;-80
2024/02/20 00:16:26;;;;;;;37.33;26.83;;;13.10;74.10;;;;;;5034829;28;20674;-80
2024/02/20 00:19:10;;;;;;;37.15;25.83;;;13.10;74.00;;;;;;5037479;28;20732;-80
2024/02/20 00:21:54;;;;;;;34.92;24.98;;;13.10;74.00;;;;;;5037392;28;20511;-80
2024/02/20 00:24:39;;;;;;;32.85;24.33;;;13.10;73.90;;;;;;5033248;28;20044;-81
2024/02/20 00:27:24;;;;;;;31.52;21.48;;;13.10;73.90;;;;;;5030735;28;20569;-80
2024/02/20 00:30:10;;;;;;;26.23;20.95;;;13.10;73.80;;;;;;5032494;28;20254;-81
2024/02/20 00:32:55;;;;;;;31.23;20.20;;;13.00;73.60;;;;;;5031836;28;20094;-80
2024/02/20 00:35:39;;;;;;;31.05;19.90;;;13.00;73.60;;;;;;5034565;28;20048;-80
2024/02/20 00:38:24;;;;;;;28.27;18.70;;;13.00;73.60;;;;;;5025739;28;20048;-80
2024/02/20 00:41:09;;;;;;;25.95;17.48;;;13.00;73.50;;;;;;5034466;28;20039;-80
2024/02/20 00:43:54;;;;;;;23.23;16.25;;;13.00;73.50;;;;;;5043668;28;20372;-80
2024/02/20 00:46:39;;;;;;;27.13;16.83;;;13.00;73.50;;;;;;5028470;28;20412;-80
2024/02/20 00:49:24;;;;;;;24.92;16.30;;;12.90;73.30;;;;;;5028469;28;20052;-80
2024/02/20 00:52:09;;;;;;;26.35;14.77;;;12.90;73.30;;;;;;5028441;28;20041;-79
2024/02/20 00:54:53;;;;;;;23.45;14.15;;;12.90;73.20;;;;;;5041373;28;20055;-80
2024/02/20 00:57:39;;;;;;;25.33;14.27;;;12.90;73.20;;;;;;5038972;28;20109;-79
2024/02/20 01:00:23;;;;;;;18.30;12.48;;;12.90;73.20;;;;;;5034839;28;20044;-79
2024/02/20 01:03:07;;;;;;;20.30;13.27;;;12.80;73.00;;;;;;5042736;28;20036;-81
2024/02/20 01:05:52;;;;;;;24.90;12.68;;;12.80;73.00;;;;;;5034004;28;20048;-80
2024/02/20 01:08:39;;;;;;;21.77;11.93;;;12.80;72.90;;;;;;5047835;28;20040;-80
2024/02/20 01:11:23;;;;;;;16.00;10.82;;;12.80;72.90;;;;;;5034422;28;20103;-79
2024/02/20 01:14:08;;;;;;;22.02;11.25;;;12.80;73.40;;;;;;5041303;28;20040;-79
2024/02/20 01:16:53;;;;;;;19.90;10.95;;;12.80;72.80;;;;;;5043046;28;20036;-79
2024/02/20 01:19:37;;;;;;;22.27;10.77;;;12.80;72.80;;;;;;5035182;28;20050;-79
2024/02/20 01:22:22;;;;;;;17.10;9.85;;;12.70;72.60;;;;;;5033219;28;20044;-79
2024/02/20 01:25:07;;;;;;;17.38;9.63;;;12.80;72.70;;;;;;5040210;28;20044;-80
2024/02/20 01:27:51;;;;;;;17.40;8.95;;;12.80;72.70;;;;;;5034120;28;20043;-81
2024/02/20 01:30:36;;;;;;;21.88;8.93;;;12.80;72.60;;;;;;5037397;28;20035;-80
2024/02/20 01:33:20;;;;;;;15.55;8.73;;;12.70;72.40;;;;;;5043556;28;20788;-80
2024/02/20 01:36:06;;;;;;;21.20;9.88;;;12.80;72.60;;;;;;5035239;28;20773;-81
2024/02/20 01:38:51;;;;;;;17.67;8.45;;;12.70;72.40;;;;;;5037387;28;20083;-81
2024/02/20 01:41:36;;;;;;;19.05;8.43;;;12.80;72.50;;;;;;5024820;28;20048;-80
2024/02/20 01:44:25;;;;;;;13.43;7.68;;;12.80;72.50;;;;;;5032502;28;20144;-80
2024/02/20 01:47:09;;;;;;;17.67;7.65;;;12.70;72.30;;;;;;5034200;28;20090;-81
2024/02/20 01:49:55;;;;;;;19.13;7.20;;;12.70;72.20;;;;;;5036242;28;20048;-80
2024/02/20 01:52:40;;;;;;;14.48;7.28;;;12.70;72.20;;;;;;5040869;28;20099;-81
2024/02/20 01:55:25;;;;;;;15.32;8.05;;;12.70;72.20;;;;;;5041212;28;20040;-80
2024/02/20 01:58:11;;;;;;;11.95;6.55;;;12.70;72.20;;;;;;5034511;28;20091;-80
2024/02/20 02:00:55;;;;;;;21.00;8.02;;;12.70;72.20;;;;;;5039016;28;20226;-80
2024/02/20 02:03:41;;;;;;;13.73;7.03;;;12.60;71.90;;;;;;5037336;28;20095;-80
2024/02/20 02:06:30;;;;;;;17.25;6.10;;;12.60;71.90;;;;;;5032465;28;20487;-80
2024/02/20 02:09:14;;;;;;;17.13;6.70;;;12.60;71.90;;;;;;5033305;28;20126;-81
2024/02/20 02:11:59;;;;;;;14.60;6.55;;;12.60;71.90;;;;;;5039070;28;20087;-80
2024/02/20 02:14:47;;;;;;;14.88;6.10;;;12.60;71.90;;;;;;5040893;28;20031;-80
2024/02/20 02:17:32;;;;;;;17.65;7.13;;;12.50;71.70;;;;;;5037847;28;20040;-81
2024/02/20 02:20:16;;;;;;;15.90;6.95;;;12.50;71.70;;;;;;5031295;28;20052;-80
2024/02/20 02:23:01;;;;;;;18.50;5.45;;;12.60;71.90;;;;;;5035668;28;20107;-80
2024/02/20 02:25:45;;;;;;;16.27;5.88;;;12.50;71.70;;;;;;5031912;28;20047;-80
2024/02/20 02:28:30;;;;;;;15.07;5.97;;;12.50;71.60;;;;;;5035340;28;20163;-81
2024/02/20 02:31:16;;;;;;;16.83;5.80;;;12.50;71.60;;;;;;5039636;28;20526;-81
2024/02/20 02:34:01;;;;;;;13.27;5.43;;;12.50;71.60;;;;;;5039225;28;20504;-80
2024/02/20 02:36:45;;;;;;;15.25;4.80;;;12.50;71.50;;;;;;5054077;28;20042;-81
2024/02/20 02:39:33;;;;;;;13.55;4.72;;;12.50;71.50;;;;;;5032377;28;20071;-80
2024/02/20 02:42:17;;;;;;;10.80;4.65;;;12.50;71.50;;;;;;5012026;28;20072;-81
2024/02/20 02:45:04;;;;;;;19.30;5.32;;;12.50;71.40;;;;;;5043251;28;20070;-81
2024/02/20 02:47:50;;;;;;;19.90;6.00;;;12.50;71.40;;;;;;5049133;28;20047;-81
2024/02/20 02:50:35;;;;;;;12.80;4.28;;;12.40;71.20;;;;;;5039169;28;20733;-81
2024/02/20 02:53:21;;;;;;;19.52;5.32;;;12.40;71.20;;;;;;5035851;28;20108;-80
2024/02/20 02:56:11;;;;;;;10.88;4.18;;;12.40;71.40;;;;;;5041638;28;20035;-81
2024/02/20 02:58:56;;;;;;;11.23;5.07;;;12.40;71.20;;;;;;5037411;28;20100;-79
2024/02/20 03:01:41;;;;;;;13.43;4.90;;;12.40;71.20;;;;;;5035737;28;20032;-79
2024/02/20 03:04:25;;;;;;;13.70;4.15;;;12.40;71.20;;;;;;5039192;28;20171;-80
2024/02/20 03:07:10;;;;;;;14.00;3.80;;;12.40;71.10;;;;;;5049760;28;20031;-80
2024/02/20 03:09:56;;;;;;;12.18;4.30;;;12.40;71.10;;;;;;5031848;28;20125;-79
2024/02/20 03:12:40;;;;;;;10.20;3.88;;;12.40;71.10;;;;;;5041937;28;20495;-79
2024/02/20 03:15:25;;;;;;;13.23;4.20;;;12.40;71.10;;;;;;5038971;28;20095;-80
2024/02/20 03:18:10;;;;;;;14.60;5.18;;;12.40;71.00;;;;;;5033958;28;20570;-80
2024/02/20 03:20:55;;;;;;;18.83;4.20;;;12.40;71.00;;;;;;5044908;28;20546;-80
2024/02/20 03:23:41;;;;;;;10.63;5.43;;;12.40;71.00;;;;;;5043834;28;20116;-80
2024/02/20 03:26:28;;;;;;;16.02;4.68;;;12.40;71.00;;;;;;5040498;28;20424;-80
2024/02/20 03:29:13;;;;;;;13.13;4.65;;;12.40;71.00;;;;;;5041790;28;20428;-80
2024/02/20 03:31:59;;;;;;;12.27;3.70;;;12.40;70.90;;;;;;5040544;28;20385;-80
2024/02/20 03:34:43;;;;;;;12.40;4.32;;;12.40;70.90;;;;;;5045988;28;20032;-80
2024/02/20 03:37:28;;;;;;;13.05;3.58;;;12.40;70.90;;;;;;5040643;28;20097;-80
2024/02/20 03:40:13;;;;;;;16.63;5.40;;;12.40;70.90;;;;;;5040996;28;21191;-79
2024/02/20 03:42:58;;;;;;;20.08;5.55;;;12.30;70.70;;;;;;5046859;28;20032;-80
2024/02/20 03:45:42;;;;;;;13.32;3.97;;;12.40;70.80;;;;;;5041442;28;20102;-80
2024/02/20 03:48:27;;;;;;;12.15;4.72;;;12.40;70.90;;;;;;5044783;28;20060;-80
2024/02/20 03:51:11;;;;;;;10.32;4.80;;;12.40;70.80;;;;;;5045712;28;20040;-80
2024/02/20 03:53:56;;;;;;;14.15;4.32;;;12.30;70.60;;;;;;5039240;28;20561;-78
2024/02/20 03:56:40;;;;;;;15.68;4.32;;;12.40;70.80;;;;;;5036801;28;20126;-79
2024/02/20 03:59:25;;;;;;;11.00;3.75;;;12.30;70.60;;;;;;5040408;28;20080;-79
2024/02/20 04:02:10;;;;;;;10.70;3.97;;;12.40;70.70;;;;;;5039813;28;20035;-80
2024/02/20 04:04:55;;;;;;;16.63;3.40;;;12.40;70.70;;;;;;5042606;28;20080;-79
2024/02/20 04:07:40;;;;;;;11.80;4.20;;;12.30;70.50;;;;;;5046246;28;20036;-80
2024/02/20 04:10:24;;;;;;;11.98;3.85;;;12.30;70.50;;;;;;5046054;28;20063;-80
2024/02/20 04:13:09;;;;;;;13.93;3.65;;;12.30;70.50;;;;;;5050527;28;20039;-79
2024/02/20 04:15:53;;;;;;;10.68;4.10;;;12.30;70.50;;;;;;5048026;28;20040;-79
2024/02/20 04:18:39;;;;;;;14.43;3.80;;;12.30;70.70;;;;;;5037889;28;20106;-79
2024/02/20 04:21:24;;;;;;;14.73;3.67;;;12.30;70.50;;;;;;5036525;28;20368;-79
2024/02/20 04:24:09;;;;;;;11.75;3.30;;;12.30;70.50;;;;;;5043578;28;20537;-79
2024/02/20 04:26:53;;;;;;;14.02;3.13;;;12.30;70.40;;;;;;5042785;28;20086;-79
2024/02/20 04:29:38;;;;;;;11.75;2.67;;;12.30;70.50;;;;;;5036579;28;20404;-79
2024/02/20 04:32:23;;;;;;;11.65;3.80;;;12.30;70.40;;;;;;5039677;28;20060;-80
2024/02/20 04:35:07;;;;;;;17.52;4.78;;;12.20;70.30;;;;;;5040593;28;20040;-80
2024/02/20 04:37:52;;;;;;;13.02;4.50;;;12.20;70.30;;;;;;5041302;28;20554;-79
2024/02/20 04:40:37;;;;;;;14.77;4.70;;;12.20;70.30;;;;;;5039278;28;20106;-80
2024/02/20 04:43:21;;;;;;;11.55;3.00;;;12.20;70.30;;;;;;5041816;28;20040;-80
2024/02/20 04:46:06;;;;;;;16.13;5.00;;;12.20;70.30;;;;;;5039255;28;20178;-80
2024/02/20 04:48:51;;;;;;;13.70;3.75;;;12.20;70.30;;;;;;5041169;28;20036;-80
2024/02/20 04:51:36;;;;;;;12.98;3.40;;;12.20;70.30;;;;;;5047815;28;20039;-80
2024/02/20 04:54:21;;;;;;;13.40;3.95;;;12.20;70.20;;;;;;5021758;28;20027;-80
2024/02/20 04:57:05;;;;;;;9.90;3.13;;;12.20;70.20;;;;;;5037741;28;20080;-80
2024/02/20 04:59:51;;;;;;;12.88;2.83;;;12.20;70.20;;;;;;5045696;28;20044;-79
2024/02/20 05:02:42;;;;;;;16.83;4.10;;;12.20;70.20;;;;;;5043925;28;20167;-79
2024/02/20 05:05:26;;;;;;;10.93;2.95;;;12.20;70.20;;;;;;5040969;28;20082;-79
2024/02/20 05:08:10;;;;;;;11.38;3.33;;;12.20;70.20;;;;;;5035581;28;20380;-78
2024/02/20 05:10:56;;;;;;;10.90;3.25;;;12.20;70.10;;;;;;5036357;28;20040;-79
2024/02/20 05:13:41;;;;;;;8.73;2.67;;;12.20;70.10;;;;;;5044903;28;20047;-79
2024/02/20 05:16:26;;;;;;;12.38;3.05;;;12.20;70.10;;;;;;5041749;28;20043;-79
2024/02/20 05:19:10;;;;;;;12.57;3.47;;;12.20;70.10;;;;;;5022743;28;20084;-79
2024/02/20 05:21:55;;;;;;;12.48;3.28;;;12.20;70.10;;;;;;5042955;28;20546;-79
2024/02/20 05:24:45;;;;;;;10.48;2.70;;;12.10;69.90;;;;;;5030785;28;20573;-79
2024/02/20 05:27:30;;;;;;;9.15;3.40;;;12.10;69.90;;;;;;5042724;28;20487;-79
2024/02/20 05:30:15;;;;;;;10.02;2.83;;;12.10;69.90;;;;;;5050939;28;20079;-78
2024/02/20 05:33:02;;;;;;;10.00;2.85;;;12.10;69.90;;;;;;5061753;28;20082;-79
2024/02/20 05:35:46;;;;;;;8.70;2.60;;;12.10;69.90;;;;;;5057280;28;20052;-80
2024/02/20 05:38:31;;;;;;;8.23;2.70;;;12.10;69.90;;;;;;5038797;28;20043;-81
2024/02/20 05:41:16;;;;;;;7.38;3.00;;;12.10;69.90;;;;;;5039987;28;20111;-80
2024/02/20 05:44:01;;;;;;;10.10;3.60;;;12.10;70.00;;;;;;5040071;28;20495;-81
2024/02/20 05:46:45;;;;;;;12.00;3.40;;;12.10;70.00;;;;;;5046179;28;20550;-81
2024/02/20 05:49:30;;;;;;;7.35;2.75;;;12.10;70.00;;;;;;5038288;28;20044;-81
2024/02/20 05:52:14;;;;;;;9.15;2.67;;;12.10;70.00;;;;;;5031787;28;20036;-80
2024/02/20 05:54:59;;;;;;;10.23;3.60;;;12.10;70.00;;;;;;5039736;28;20048;-81
2024/02/20 05:57:43;;;;;;;9.10;2.78;;;12.10;69.90;;;;;;5040161;28;20055;-84
2024/02/20 06:00:28;;;;;;;7.97;2.42;;;12.10;69.90;;;;;;5035194;28;20072;-90
2024/02/20 06:03:13;;;;;;;11.82;2.80;;;12.00;69.70;;;;;;5043992;28;20047;-81
2024/02/20 06:05:57;;;;;;;9.18;2.72;;;12.10;69.90;;;;;;5039366;28;20604;-80
2024/02/20 06:08:46;;;;;;;8.82;1.98;;;12.10;69.90;;;;;;5018083;28;20093;-80
2024/02/20 06:11:31;;;;;;;6.43;2.33;;;12.00;69.70;;;;;;5035243;28;20110;-80
2024/02/20 06:14:16;;;;;;;9.80;4.35;;;12.00;69.80;;;;;;5042974;28;20460;-81
2024/02/20 06:17:01;;;;;;;8.20;2.15;;;12.00;69.80;;;;;;5043184;28;20039;-81
2024/02/20 06:19:45;;;;;;;6.22;2.22;;;12.00;69.80;;;;;;5036852;28;20087;-81
2024/02/20 06:22:32;;;;;;;7.07;2.55;;;12.00;69.80;;;;;;5024582;28;20128;-82
2024/02/20 06:25:16;;;;;;;5.78;1.85;;;12.00;69.70;;;;;;5042768;28;20048;-82
2024/02/20 06:28:02;;;;;;;8.38;2.38;;;12.00;69.80;;;;;;5037826;28;20135;-82
2024/02/20 06:30:47;;;;;;;7.82;1.95;;;12.00;69.80;;;;;;5035673;28;20068;-80
2024/02/20 06:33:32;;;;;;;8.02;2.53;;;12.00;69.80;;;;;;5038304;28;20102;-82
2024/02/20 06:36:17;;;;;;;6.90;1.85;;;12.00;69.80;;;;;;5039813;28;20137;-82
2024/02/20 06:39:03;;;;;;;5.63;1.42;;;12.00;69.80;;;;;;5039919;28;20543;-80
2024/02/20 06:41:48;;;;;;;4.97;1.52;;;12.00;69.80;;;;;;5040407;28;20036;-76
2024/02/20 06:44:32;;;;;;;5.10;2.85;;;12.00;69.80;;;;;;5033735;28;20064;-77
2024/02/20 06:47:18;;;;;;;4.75;2.20;;;12.00;69.80;;;;;;5021170;28;20048;-77
2024/02/20 06:50:03;;;;;;;7.80;1.70;;;12.00;70.10;;;;;;5027183;28;20106;-78
2024/02/20 06:52:48;;;;;;;9.77;3.42;;;12.10;70.40;;;;;;5037044;28;20044;-77
2024/02/20 06:55:33;;;;;;;5.80;1.48;;;12.10;70.60;;;;;;5035744;28;20378;-77
2024/02/20 06:58:18;;;;;;;8.10;2.60;;;12.10;70.80;;;;;;5032398;28;20443;-77
2024/02/20 07:01:03;;;;;;;9.23;2.28;;;12.10;71.00;;;;;;5034014;28;20561;-76
2024/02/20 07:03:48;;;;;;;6.43;1.85;;;12.20;71.40;;;;;;5036046;28;20036;-80
2024/02/20 07:06:34;;;;;;;3.50;1.83;;;12.20;71.70;;;;;;5033523;28;20250;-76
2024/02/20 07:09:19;;;;;;;8.45;2.50;;;12.20;72.00;;;;;;5032807;28;20093;-75
2024/02/20 07:12:04;;;;;;;26.17;6.03;;;12.30;72.50;;;;;;5020787;28;20097;-76
2024/02/20 07:14:48;;;;;;;84.32;18.42;;;12.30;72.60;;;;;;5034398;28;20401;-77
2024/02/20 07:17:34;;;;;;;67.65;17.58;;;12.30;72.70;;;;;;5033254;28;20125;-77
2024/02/20 07:20:18;;;;;;;59.92;14.07;;;12.30;72.90;;;;;;5032330;28;20079;-76
2024/02/20 07:23:04;;;;;;;64.22;15.98;;;12.30;73.10;;;;;;5035044;28;20032;-75
2024/02/20 07:25:48;;;;;;;55.53;13.38;;;12.30;73.40;;;;;;5034952;28;20416;-75
2024/02/20 07:28:33;;;;;;;46.42;12.63;;;12.40;73.90;;;;;;5028490;28;20079;-75
2024/02/20 07:31:22;;;;;;;38.47;12.65;;;12.40;74.10;;;;;;5034589;28;20068;-77
2024/02/20 07:34:06;;;;;;;33.60;9.20;;;12.50;74.50;;;;;;5034140;28;20127;-77
2024/02/20 07:36:51;;;;;;;30.58;6.93;;;12.50;74.40;;;;;;5036336;28;20678;-76
2024/02/20 07:39:36;;;;;;;27.67;8.40;;;12.50;74.40;;;;;;5029296;28;20385;-76
2024/02/20 07:42:20;;;;;;;31.52;7.13;;;12.50;74.50;;;;;;5033122;28;20093;-78
2024/02/20 07:45:06;;;;;;;20.73;6.72;;;12.50;74.50;;;;;;5029975;28;20105;-79
2024/02/20 07:47:50;;;;;;;20.33;6.72;;;12.50;74.50;;;;;;5033776;28;20087;-79
2024/02/20 07:50:35;;;;;;;21.75;6.57;;;12.50;74.40;;;;;;5026884;28;20633;-77
2024/02/20 07:53:21;;;;;;;18.27;5.53;;;12.50;74.40;;;;;;5034860;28;20052;-77
2024/02/20 07:56:09;;;;;;;12.23;5.70;;;12.50;74.40;;;;;;5027955;28;20534;-76
2024/02/20 07:58:53;;;;;;;13.32;3.90;;;12.50;74.40;;;;;;5025955;28;20055;-77
2024/02/20 08:01:38;;;;;;;11.13;4.20;;;12.50;74.40;;;;;;5026108;28;20044;-77
2024/02/20 08:04:23;;;;;;;12.40;3.30;;;12.60;74.60;;;;;;5030348;28;20044;-76
2024/02/20 08:07:07;;;;;;;12.95;3.15;;;12.50;74.30;;;;;;5033141;28;20035;-77
2024/02/20 08:09:55;;;;;;;10.63;3.78;;;12.50;74.20;;;;;;5032204;28;20155;-76
2024/02/20 08:12:41;;;;;;;9.40;2.97;;;12.50;74.20;;;;;;5034067;28;20051;-75
2024/02/20 08:15:25;;;;;;;10.05;3.47;;;12.50;74.20;;;;;;5028229;28;20484;-75
2024/02/20 08:18:10;;;;;;;9.13;2.97;;;12.50;74.20;;;;;;5026021;28;20121;-75
2024/02/20 08:20:54;;;;;;;9.82;2.58;;;12.60;74.40;;;;;;5027442;28;20150;-76
2024/02/20 08:23:42;;;;;;;8.82;2.42;;;12.60;74.40;;;;;;5034812;28;20040;-75
2024/02/20 08:26:26;;;;;;;8.90;3.80;;;12.60;74.30;;;;;;5032733;28;20086;-75
2024/02/20 08:29:12;;;;;;;5.22;2.60;;;12.70;74.40;;;;;;5029060;28;20040;-76
2024/02/20 08:31:56;;;;;;;9.82;2.83;;;12.70;74.30;;;;;;5029147;28;20132;-76
2024/02/20 08:34:42;;;;;;;9.82;2.38;;;12.80;74.50;;;;;;5034128;28;20071;-76
2024/02/20 08:37:29;;;;;;;7.20;2.55;;;12.80;75.00;;;;;;5036789;28;20103;-78
2024/02/20 08:40:13;;;;;;;8.68;2.53;;;13.10;75.70;;;;;;5029834;28;20076;-78
2024/02/20 08:42:58;;;;;;;6.63;2.55;;;13.30;75.90;;;;;;5038628;28;20110;-77
2024/02/20 08:45:42;;;;;;;7.25;2.17;;;13.50;76.10;;;;;;5034321;28;20128;-77
2024/02/20 08:48:28;;;;;;;6.55;2.78;;;13.80;76.30;;;;;;5033945;28;20051;-77
2024/02/20 08:51:14;;;;;;;7.82;2.20;;;14.00;76.30;;;;;;5026097;28;20087;-77
2024/02/20 08:53:58;;;;;;;6.68;2.05;;;14.30;76.50;;;;;;5036578;28;20706;-75
2024/02/20 08:56:43;;;;;;;7.05;1.92;;;14.50;76.40;;;;;;5032530;28;20208;-75
2024/02/20 08:59:27;;;;;;;5.32;1.75;;;14.70;76.50;;;;;;5036524;28;20511;-76
2024/02/20 09:02:11;;;;;;;6.57;1.90;;;14.90;76.40;;;;;;5029515;28;20099;-77
2024/02/20 09:04:56;;;;;;;5.68;2.35;;;15.10;76.40;;;;;;5038755;28;20044;-77
2024/02/20 09:07:42;;;;;;;4.10;1.42;;;15.20;76.20;;;;;;5037316;28;20040;-77
2024/02/20 09:10:26;;;;;;;5.05;1.27;;;15.40;76.20;;;;;;5037163;28;20080;-77
2024/02/20 09:13:10;;;;;;;5.40;1.63;;;15.60;76.20;;;;;;5035697;28;20100;-76
2024/02/20 09:15:55;;;;;;;4.57;1.45;;;15.70;76.20;;;;;;5031319;28;20344;-76
2024/02/20 09:18:40;;;;;;;6.13;2.38;;;15.80;75.90;;;;;;5033188;28;20562;-77
2024/02/20 09:21:24;;;;;;;3.47;1.42;;;15.90;75.80;;;;;;5038279;28;20045;-77
2024/02/20 09:24:10;;;;;;;5.70;2.00;;;16.00;75.70;;;;;;5030808;28;20050;-75
2024/02/20 09:26:54;;;;;;;6.18;1.73;;;16.20;75.80;;;;;;5028843;28;20131;-76
2024/02/20 09:29:39;;;;;;;5.50;2.88;;;16.20;75.50;;;;;;5024662;28;20104;-76
2024/02/20 09:32:25;;;;;;;4.53;1.40;;;16.30;75.50;;;;;;5035154;28;20257;-79
2024/02/20 09:35:09;;;;;;;6.18;1.80;;;16.40;75.40;;;;;;5033359;28;20049;-75
2024/02/20 09:37:56;;;;;;;4.47;1.38;;;16.50;75.30;;;;;;5036120;28;20127;-77
2024/02/20 09:40:41;;;;;;;3.55;1.20;;;16.50;74.90;;;;;;5022948;28;20068;-75
2024/02/20 09:43:27;;;;;;;3.88;1.15;;;16.50;74.60;;;;;;5039229;28;20048;-77
2024/02/20 09:46:15;;;;;;;7.05;1.20;;;16.40;74.30;;;;;;5033467;28;20040;-76
2024/02/20 09:49:00;;;;;;;7.55;1.42;;;16.40;74.30;;;;;;5032959;28;20064;-76
2024/02/20 09:51:46;;;;;;;9.25;1.63;;;16.30;74.00;;;;;;5028918;28;20571;-78
2024/02/20 09:54:35;;;;;;;4.43;1.27;;;16.30;73.90;;;;;;5038961;28;20044;-75
2024/02/20 09:57:21;;;;;;;5.88;2.03;;;16.20;73.70;;;;;;5035524;28;20463;-78
2024/02/20 10:00:06;;;;;;;3.10;1.60;;;16.20;73.60;;;;;;5034253;28;20052;-75
2024/02/20 10:03:00;;;;;;;6.25;1.65;;;16.10;73.30;;;;;;5036273;28;20214;-77
2024/02/20 10:05:46;;;;;;;5.80;2.00;;;16.10;73.20;;;;;;5031674;28;20080;-77
2024/02/20 10:08:32;;;;;;;3.25;1.10;;;16.10;73.10;;;;;;5033065;28;21299;-77
2024/02/20 10:11:16;;;;;;;5.72;1.83;;;16.10;73.00;;;;;;5037522;28;20327;-76
2024/02/20 10:14:02;;;;;;;2.55;1.25;;;16.10;72.90;;;;;;5035305;28;20172;-75
2024/02/20 10:17:00;;;;;;;3.53;1.40;;;16.10;72.70;;;;;;5022703;28;20095;-75
2024/02/20 10:19:45;;;;;;;2.72;1.70;;;16.10;72.50;;;;;;5034830;28;20614;-75
2024/02/20 10:22:29;;;;;;;5.97;1.92;;;16.10;72.50;;;;;;5037072;28;20531;-77
2024/02/20 10:25:14;;;;;;;2.40;1.20;;;16.10;72.40;;;;;;5029193;28;20072;-77
2024/02/20 10:27:58;;;;;;;4.35;1.27;;;16.10;72.30;;;;;;5032963;28;20052;-75
2024/02/20 10:30:43;;;;;;;3.15;1.77;;;16.10;72.10;;;;;;5034802;28;20064;-75
2024/02/20 10:33:28;;;;;;;6.03;1.65;;;16.10;72.00;;;;;;5027717;28;20111;-76
2024/02/20 10:36:13;;;;;;;2.08;1.00;;;16.20;72.00;;;;;;5036437;28;20110;-75
2024/02/20 10:39:11;;;;;;;2.38;1.35;;;16.30;71.90;;;;;;5035351;28;20048;-76
2024/02/20 10:42:00;;;;;;;4.53;1.02;;;16.30;71.70;;;;;;5032896;28;20053;-75
2024/02/20 10:44:46;;;;;;;2.78;1.10;;;16.40;71.70;;;;;;5033669;28;20094;-76
2024/02/20 10:47:33;;;;;;;3.15;1.08;;;16.40;71.60;;;;;;5038398;28;20120;-75
2024/02/20 10:50:18;;;;;;;2.88;1.30;;;16.50;71.50;;;;;;5012926;28;20514;-76
2024/02/20 10:53:03;;;;;;;2.83;1.20;;;16.50;71.30;;;;;;5034397;28;20035;-76
2024/02/20 10:55:51;;;;;;;2.85;1.33;;;16.50;71.20;;;;;;5033466;28;20040;-75
2024/02/20 10:58:39;;;;;;;1.60;1.00;;;16.50;71.00;;;;;;5034267;28;20654;-76
2024/02/20 11:01:25;;;;;;;4.30;1.10;;;16.50;71.00;;;;;;5035713;28;20043;-76
2024/02/20 11:04:10;;;;;;;2.85;1.10;;;16.50;70.90;;;;;;5032570;28;20515;-76
2024/02/20 11:06:55;;;;;;;4.65;0.80;;;16.60;71.00;;;;;;5037479;28;20044;-76
2024/02/20 11:09:40;;;;;;;2.63;1.10;;;16.60;70.80;;;;;;5035178;28;20839;-77
2024/02/20 11:12:31;;;;;;;5.20;0.90;;;16.50;70.50;;;;;;5017769;28;20515;-75
2024/02/20 11:15:20;;;;;;;2.35;1.27;;;16.60;70.60;;;;;;5030881;28;20064;-75
2024/02/20 11:18:15;;;;;;;1.27;0.70;;;16.60;70.40;;;;;;5034515;28;20086;-75
2024/02/20 11:21:05;;;;;;;3.03;0.80;;;16.60;70.20;;;;;;5033770;28;20081;-75
2024/02/20 11:23:50;;;;;;;3.38;0.60;;;16.60;70.20;;;;;;5030318;28;20131;-75
2024/02/20 11:26:36;;;;;;;1.67;0.70;;;16.70;70.20;;;;;;5032472;28;20080;-75
2024/02/20 11:29:27;;;;;;;1.50;0.50;;;16.70;70.10;;;;;;5035317;28;20336;-75
2024/02/20 11:32:13;;;;;;;1.90;0.88;;;16.80;70.00;;;;;;5036274;28;20133;-75
2024/02/20 11:34:57;;;;;;;1.17;0.70;;;16.90;70.00;;;;;;5029489;28;20032;-75
2024/02/20 11:37:50;;;;;;;1.70;0.93;;;17.00;69.90;;;;;;5029830;28;20051;-75
2024/02/20 11:40:35;;;;;;;3.30;0.88;;;17.10;69.70;;;;;;5035933;28;20519;-75
2024/02/20 11:43:21;;;;;;;0.77;0.47;;;17.20;69.70;;;;;;5030229;28;20106;-75
2024/02/20 11:46:06;;;;;;;2.08;0.68;;;17.20;69.40;;;;;;5035475;28;20503;-75
2024/02/20 11:48:50;;;;;;;2.25;0.70;;;17.30;69.30;;;;;;5029960;28;20127;-75
2024/02/20 11:51:35;;;;;;;1.67;0.50;;;17.40;69.20;;;;;;5031228;28;20044;-75
2024/02/20 11:54:20;;;;;;;2.15;0.60;;;17.40;69.00;;;;;;5034723;28;20047;-75
2024/02/20 11:57:06;;;;;;;1.10;0.70;;;17.50;69.00;;;;;;5022296;28;20035;-76
2024/02/20 11:59:50;;;;;;;0.80;0.80;;;17.60;69.00;;;;;;5034950;28;20602;-75
2024/02/20 12:02:35;;;;;;;2.70;1.15;;;17.70;68.90;;;;;;5035673;28;20439;-75
2024/02/20 12:05:24;;;;;;;1.67;0.63;;;17.70;68.70;;;;;;5034405;28;20510;-77
2024/02/20 12:08:13;;;;;;;1.83;1.10;;;17.80;68.60;;;;;;5028782;28;20086;-75
2024/02/20 12:11:04;;;;;;;2.00;0.88;;;17.90;68.50;;;;;;5029004;28;20048;-76
2024/02/20 12:13:52;;;;;;;2.03;0.88;;;18.00;68.50;;;;;;5031080;28;20044;-76
2024/02/20 12:16:37;;;;;;;2.22;0.75;;;18.10;68.50;;;;;;5033882;28;20436;-76
2024/02/20 12:19:22;;;;;;;2.05;0.73;;;18.10;68.30;;;;;;5023759;28;20056;-75
2024/02/20 12:22:08;;;;;;;2.08;0.90;;;18.20;68.20;;;;;;5025240;28;20106;-75
2024/02/20 12:24:52;;;;;;;1.35;0.60;;;18.30;68.20;;;;;;5037181;28;20059;-75
2024/02/20 12:27:38;;;;;;;2.47;0.85;;;18.30;67.90;;;;;;5028354;28;20590;-75
2024/02/20 12:30:22;;;;;;;7.57;1.92;;;18.40;67.80;;;;;;5033951;28;20594;-76
2024/02/20 12:33:07;;;;;;;2.17;1.05;;;18.40;67.60;;;;;;5034946;28;20056;-76
2024/02/20 12:35:55;;;;;;;5.85;1.58;;;18.40;67.40;;;;;;5031947;28;20098;-75
2024/02/20 12:38:39;;;;;;;2.08;0.98;;;18.50;67.30;;;;;;5034638;28;20044;-76
2024/02/20 12:41:24;;;;;;;4.10;0.88;;;18.50;67.10;;;;;;5038458;28;20580;-75
2024/02/20 12:44:08;;;;;;;3.30;1.23;;;18.50;66.90;;;;;;5033707;28;20098;-75
2024/02/20 12:46:53;;;;;;;4.82;0.98;;;18.50;66.70;;;;;;5030450;28;20427;-75
2024/02/20 12:49:38;;;;;;;3.97;0.68;;;18.60;66.70;;;;;;5033466;28;20044;-75
2024/02/20 12:52:22;;;;;;;3.38;0.75;;;18.60;66.60;;;;;;5034075;28;20511;-75
2024/02/20 12:55:07;;;;;;;2.20;0.70;;;18.60;66.40;;;;;;5034493;28;20078;-76
2024/02/20 12:57:51;;;;;;;2.55;1.13;;;18.70;66.30;;;;;;5028261;28;20087;-74
2024/02/20 13:00:37;;;;;;;3.63;0.90;;;18.70;66.20;;;;;;5022054;28;20052;-74
2024/02/20 13:03:22;;;;;;;2.58;1.00;;;18.70;66.00;;;;;;5035386;28;20044;-75
2024/02/20 13:06:07;;;;;;;1.90;1.02;;;18.80;66.00;;;;;;5034300;28;20094;-75
2024/02/20 13:08:52;;;;;;;2.58;1.15;;;18.80;65.70;;;;;;5036492;28;20048;-75
2024/02/20 13:11:37;;;;;;;2.88;0.95;;;18.80;65.60;;;;;;5036651;28;20578;-76
2024/02/20 13:14:22;;;;;;;3.90;1.27;;;18.80;65.50;;;;;;5043515;28;20404;-75
2024/02/20 13:17:09;;;;;;;2.40;0.80;;;18.90;65.40;;;;;;5036673;28;20400;-75
2024/02/20 13:19:54;;;;;;;2.55;1.10;;;18.90;65.20;;;;;;5034621;28;20055;-75
2024/02/20 13:22:38;;;;;;;1.45;1.00;;;18.90;65.10;;;;;;5034415;28;20044;-75
2024/02/20 13:25:23;;;;;;;2.65;0.80;;;18.90;65.00;;;;;;5028404;28;20064;-75
2024/02/20 13:28:10;;;;;;;3.78;0.80;;;18.90;64.90;;;;;;5031949;28;20039;-76
2024/02/20 13:30:55;;;;;;;2.05;0.65;;;19.00;65.00;;;;;;5042737;28;20527;-74
2024/02/20 13:33:39;;;;;;;1.55;0.68;;;19.00;65.00;;;;;;5034337;28;21471;-75
2024/02/20 13:36:23;;;;;;;0.70;0.60;;;19.00;65.00;;;;;;5033857;28;20082;-75
2024/02/20 13:39:08;;;;;;;2.58;0.63;;;19.20;65.30;;;;;;5030266;28;20518;-75
2024/02/20 13:41:53;;;;;;;2.38;0.57;;;19.30;65.30;;;;;;5038042;28;20166;-75
2024/02/20 13:44:38;;;;;;;2.63;1.00;;;19.40;65.30;;;;;;5031169;28;20044;-75
2024/02/20 13:47:22;;;;;;;2.03;0.40;;;19.50;65.20;;;;;;5035966;28;20031;-75
2024/02/20 13:50:07;;;;;;;1.25;0.60;;;19.50;65.00;;;;;;5032191;28;20501;-75
2024/02/20 13:52:52;;;;;;;1.70;0.80;;;19.60;65.00;;;;;;5022668;28;20142;-75
2024/02/20 13:55:38;;;;;;;2.65;0.82;;;19.50;64.90;;;;;;5034461;28;20102;-76
2024/02/20 13:58:26;;;;;;;2.92;0.77;;;19.50;65.00;;;;;;5035989;28;20048;-76
2024/02/20 14:01:11;;;;;;;1.30;0.57;;;19.50;65.00;;;;;;5037853;28;20546;-75
2024/02/20 14:03:55;;;;;;;2.28;0.70;;;19.50;65.00;;;;;;5038810;28;20044;-75
2024/02/20 14:06:40;;;;;;;2.42;1.05;;;19.50;65.00;;;;;;5041669;28;20132;-75
2024/02/20 14:09:25;;;;;;;1.75;0.77;;;19.50;64.90;;;;;;5037769;28;20044;-75
2024/02/20 14:12:10;;;;;;;3.10;0.75;;;19.50;64.90;;;;;;5038796;28;20178;-75
2024/02/20 14:14:54;;;;;;;1.42;0.50;;;19.50;64.80;;;;;;5037306;28;20205;-75